Terminal Aerodrome Forecast
Issued by NWS Quad Cities IA IL

Home | Current Version | Previous Version | Text Only | Print | Product List | Glossary On
Versions: 1 2 3 4 5 6 7 8 9 10 11 12 13 14 15 16 17 18 19 20 21 22 23 24
000
FTUS43 KDVN 202329
TAFDBQ
TAF
KDBQ 202329Z 2100/2124 18009KT 6SM -TSRA BKN050CB
     FM210400 33007KT 4SM BR BKN040
     FM210900 12007KT 2SM BR BKN010
     FM211300 17011KT 4SM BR BKN030
     FM211600 18013G20KT P6SM SCT050=

USA.gov is the U.S. government's official web portal to all federal, state and local government web resources and services.